North Hudson, Wisconsin
Current Conditions -  °F | °C
As of 12:30 PM on Sunday 23 Nov 2014 (Local Time) from K21D Reporting Station
Moderate Fog Moderate Fog  
Wind Chill: 48°   Ceiling: 300
Heat Index: 48°   Visibility: 0mi
Dew Point: 48°   Wind: 0mph
Humidity: 100%   Direction: NA
Pressure: 29.41"   Gusts: NA
Location:  44.9743°N, 92.6899°W
Report Text: K21D 231830Z AUTO 00000KT M1/4SM FG OVC003 09/09 A2941 RMK AO2
Loading
Personal Weather Stations






























Interactive Weather Map New forecast layout! Learn more

10-Day Weather Forecast

Advertisements
Track Severe Weather on mobile